sensor_id;sensor_type;location;lat;lon;timestamp;P1;durP1;ratioP1;P2;durP2;ratioP2
16153;SDS011;8182;55.648;13.208;2024-01-30T00:00:24;16.90;;;11.40;;
16153;SDS011;8182;55.648;13.208;2024-01-30T00:02:51;16.07;;;11.10;;
16153;SDS011;8182;55.648;13.208;2024-01-30T00:05:17;14.67;;;11.63;;
16153;SDS011;8182;55.648;13.208;2024-01-30T00:07:46;15.23;;;11.63;;
16153;SDS011;8182;55.648;13.208;2024-01-30T00:10:13;15.00;;;11.40;;
16153;SDS011;8182;55.648;13.208;2024-01-30T00:12:40;15.77;;;11.77;;
16153;SDS011;8182;55.648;13.208;2024-01-30T00:15:07;15.57;;;11.97;;
16153;SDS011;8182;55.648;13.208;2024-01-30T00:17:34;17.00;;;12.07;;
16153;SDS011;8182;55.648;13.208;2024-01-30T00:20:02;17.63;;;12.03;;
16153;SDS011;8182;55.648;13.208;2024-01-30T00:22:30;18.13;;;12.70;;
16153;SDS011;8182;55.648;13.208;2024-01-30T00:24:58;16.77;;;11.97;;
16153;SDS011;8182;55.648;13.208;2024-01-30T00:27:25;16.60;;;11.67;;
16153;SDS011;8182;55.648;13.208;2024-01-30T00:29:53;15.03;;;11.83;;
16153;SDS011;8182;55.648;13.208;2024-01-30T00:32:20;16.27;;;12.00;;
16153;SDS011;8182;55.648;13.208;2024-01-30T00:34:48;15.97;;;12.03;;
16153;SDS011;8182;55.648;13.208;2024-01-30T00:37:15;15.50;;;12.13;;
16153;SDS011;8182;55.648;13.208;2024-01-30T00:39:42;15.90;;;11.90;;
16153;SDS011;8182;55.648;13.208;2024-01-30T00:42:10;15.77;;;12.23;;
16153;SDS011;8182;55.648;13.208;2024-01-30T00:44:37;17.57;;;12.47;;
16153;SDS011;8182;55.648;13.208;2024-01-30T00:47:04;13.20;;;10.53;;
16153;SDS011;8182;55.648;13.208;2024-01-30T00:49:31;15.80;;;11.33;;
16153;SDS011;8182;55.648;13.208;2024-01-30T00:51:58;15.13;;;11.43;;
16153;SDS011;8182;55.648;13.208;2024-01-30T00:54:26;15.97;;;11.50;;
16153;SDS011;8182;55.648;13.208;2024-01-30T00:56:52;16.53;;;11.67;;
16153;SDS011;8182;55.648;13.208;2024-01-30T00:59:21;14.93;;;10.73;;
16153;SDS011;8182;55.648;13.208;2024-01-30T01:01:47;15.63;;;11.33;;
16153;SDS011;8182;55.648;13.208;2024-01-30T01:04:14;15.57;;;11.47;;
16153;SDS011;8182;55.648;13.208;2024-01-30T01:06:41;16.07;;;11.80;;
16153;SDS011;8182;55.648;13.208;2024-01-30T01:09:10;18.27;;;12.80;;
16153;SDS011;8182;55.648;13.208;2024-01-30T01:11:37;17.00;;;12.43;;
16153;SDS011;8182;55.648;13.208;2024-01-30T01:14:04;12.60;;;10.70;;
16153;SDS011;8182;55.648;13.208;2024-01-30T01:16:33;16.00;;;11.97;;
16153;SDS011;8182;55.648;13.208;2024-01-30T01:19:00;15.50;;;12.03;;
16153;SDS011;8182;55.648;13.208;2024-01-30T01:21:27;17.77;;;12.53;;
16153;SDS011;8182;55.648;13.208;2024-01-30T01:23:54;17.63;;;12.53;;
16153;SDS011;8182;55.648;13.208;2024-01-30T01:26:21;17.33;;;13.10;;
16153;SDS011;8182;55.648;13.208;2024-01-30T01:28:48;19.73;;;13.20;;
16153;SDS011;8182;55.648;13.208;2024-01-30T01:31:14;14.97;;;11.97;;
16153;SDS011;8182;55.648;13.208;2024-01-30T01:33:44;16.70;;;12.87;;
16153;SDS011;8182;55.648;13.208;2024-01-30T01:36:11;18.17;;;13.37;;
16153;SDS011;8182;55.648;13.208;2024-01-30T01:38:39;18.47;;;13.50;;
16153;SDS011;8182;55.648;13.208;2024-01-30T01:41:06;14.87;;;11.87;;
16153;SDS011;8182;55.648;13.208;2024-01-30T01:43:33;16.77;;;12.03;;
16153;SDS011;8182;55.648;13.208;2024-01-30T01:46:00;15.77;;;12.03;;
16153;SDS011;8182;55.648;13.208;2024-01-30T01:48:27;16.10;;;12.47;;
16153;SDS011;8182;55.648;13.208;2024-01-30T01:50:56;16.50;;;11.97;;
16153;SDS011;8182;55.648;13.208;2024-01-30T01:53:23;16.93;;;12.03;;
16153;SDS011;8182;55.648;13.208;2024-01-30T01:55:50;14.90;;;11.50;;
16153;SDS011;8182;55.648;13.208;2024-01-30T01:58:18;18.53;;;11.80;;
16153;SDS011;8182;55.648;13.208;2024-01-30T02:00:48;14.50;;;12.00;;
16153;SDS011;8182;55.648;13.208;2024-01-30T02:03:16;17.23;;;11.97;;
16153;SDS011;8182;55.648;13.208;2024-01-30T02:05:46;15.87;;;11.90;;
16153;SDS011;8182;55.648;13.208;2024-01-30T02:08:14;14.93;;;11.70;;
16153;SDS011;8182;55.648;13.208;2024-01-30T02:10:42;17.40;;;11.67;;
16153;SDS011;8182;55.648;13.208;2024-01-30T02:13:09;12.87;;;11.03;;
16153;SDS011;8182;55.648;13.208;2024-01-30T02:15:36;15.33;;;12.17;;
16153;SDS011;8182;55.648;13.208;2024-01-30T02:18:02;17.10;;;12.20;;
16153;SDS011;8182;55.648;13.208;2024-01-30T02:20:30;19.20;;;12.73;;
16153;SDS011;8182;55.648;13.208;2024-01-30T02:22:59;16.17;;;12.27;;
16153;SDS011;8182;55.648;13.208;2024-01-30T02:25:32;17.23;;;13.20;;
16153;SDS011;8182;55.648;13.208;2024-01-30T02:28:00;15.33;;;12.63;;
16153;SDS011;8182;55.648;13.208;2024-01-30T02:30:26;18.03;;;12.27;;
16153;SDS011;8182;55.648;13.208;2024-01-30T02:32:53;17.63;;;12.97;;
16153;SDS011;8182;55.648;13.208;2024-01-30T02:35:21;17.73;;;13.13;;
16153;SDS011;8182;55.648;13.208;2024-01-30T02:37:48;20.47;;;13.80;;
16153;SDS011;8182;55.648;13.208;2024-01-30T02:40:16;20.47;;;13.87;;
16153;SDS011;8182;55.648;13.208;2024-01-30T02:42:43;24.37;;;14.23;;
16153;SDS011;8182;55.648;13.208;2024-01-30T02:45:10;24.87;;;15.00;;
16153;SDS011;8182;55.648;13.208;2024-01-30T02:47:38;25.13;;;15.17;;
16153;SDS011;8182;55.648;13.208;2024-01-30T02:50:05;29.07;;;16.07;;
16153;SDS011;8182;55.648;13.208;2024-01-30T02:52:32;32.17;;;16.23;;
16153;SDS011;8182;55.648;13.208;2024-01-30T02:54:59;31.13;;;16.43;;
16153;SDS011;8182;55.648;13.208;2024-01-30T02:57:28;40.83;;;16.43;;
16153;SDS011;8182;55.648;13.208;2024-01-30T02:59:55;36.70;;;17.40;;
16153;SDS011;8182;55.648;13.208;2024-01-30T03:02:22;40.20;;;18.63;;
16153;SDS011;8182;55.648;13.208;2024-01-30T03:04:49;35.63;;;17.97;;
16153;SDS011;8182;55.648;13.208;2024-01-30T03:07:16;41.07;;;18.33;;
16153;SDS011;8182;55.648;13.208;2024-01-30T03:09:42;41.27;;;19.47;;
16153;SDS011;8182;55.648;13.208;2024-01-30T03:12:11;49.60;;;19.67;;
16153;SDS011;8182;55.648;13.208;2024-01-30T03:14:48;41.90;;;18.60;;
16153;SDS011;8182;55.648;13.208;2024-01-30T03:17:15;46.53;;;19.30;;
16153;SDS011;8182;55.648;13.208;2024-01-30T03:19:42;42.67;;;18.90;;
16153;SDS011;8182;55.648;13.208;2024-01-30T03:22:09;46.43;;;20.37;;
16153;SDS011;8182;55.648;13.208;2024-01-30T03:24:36;47.83;;;20.80;;
16153;SDS011;8182;55.648;13.208;2024-01-30T03:27:03;50.50;;;20.83;;
16153;SDS011;8182;55.648;13.208;2024-01-30T03:29:30;47.77;;;19.87;;
16153;SDS011;8182;55.648;13.208;2024-01-30T03:31:58;52.63;;;21.03;;
16153;SDS011;8182;55.648;13.208;2024-01-30T03:34:25;54.07;;;22.23;;
16153;SDS011;8182;55.648;13.208;2024-01-30T03:36:52;55.00;;;22.47;;
16153;SDS011;8182;55.648;13.208;2024-01-30T03:39:18;59.30;;;22.00;;
16153;SDS011;8182;55.648;13.208;2024-01-30T03:41:45;46.77;;;20.37;;
16153;SDS011;8182;55.648;13.208;2024-01-30T03:44:12;51.23;;;22.23;;
16153;SDS011;8182;55.648;13.208;2024-01-30T03:46:39;57.73;;;23.77;;
16153;SDS011;8182;55.648;13.208;2024-01-30T03:49:09;74.10;;;24.77;;
16153;SDS011;8182;55.648;13.208;2024-01-30T03:51:36;83.43;;;27.20;;
16153;SDS011;8182;55.648;13.208;2024-01-30T03:54:03;80.97;;;26.53;;
16153;SDS011;8182;55.648;13.208;2024-01-30T03:56:30;82.67;;;26.40;;
16153;SDS011;8182;55.648;13.208;2024-01-30T03:58:57;73.40;;;27.23;;
16153;SDS011;8182;55.648;13.208;2024-01-30T04:01:25;69.30;;;25.70;;
16153;SDS011;8182;55.648;13.208;2024-01-30T04:03:52;88.17;;;28.13;;
16153;SDS011;8182;55.648;13.208;2024-01-30T04:06:20;66.77;;;25.83;;
16153;SDS011;8182;55.648;13.208;2024-01-30T04:08:47;83.63;;;27.83;;
16153;SDS011;8182;55.648;13.208;2024-01-30T04:11:14;76.33;;;26.60;;
16153;SDS011;8182;55.648;13.208;2024-01-30T04:13:41;70.07;;;26.13;;
16153;SDS011;8182;55.648;13.208;2024-01-30T04:16:18;79.30;;;28.03;;
16153;SDS011;8182;55.648;13.208;2024-01-30T04:18:46;75.60;;;26.43;;
16153;SDS011;8182;55.648;13.208;2024-01-30T04:21:13;69.10;;;24.77;;
16153;SDS011;8182;55.648;13.208;2024-01-30T04:23:41;75.60;;;27.23;;
16153;SDS011;8182;55.648;13.208;2024-01-30T04:26:08;75.43;;;26.37;;
16153;SDS011;8182;55.648;13.208;2024-01-30T04:28:35;74.73;;;27.03;;
16153;SDS011;8182;55.648;13.208;2024-01-30T04:31:02;69.47;;;26.40;;
16153;SDS011;8182;55.648;13.208;2024-01-30T04:33:30;82.20;;;27.07;;
16153;SDS011;8182;55.648;13.208;2024-01-30T04:35:56;83.03;;;27.77;;
16153;SDS011;8182;55.648;13.208;2024-01-30T04:38:23;82.63;;;27.80;;
16153;SDS011;8182;55.648;13.208;2024-01-30T04:40:52;80.33;;;28.23;;
16153;SDS011;8182;55.648;13.208;2024-01-30T04:43:18;75.93;;;27.43;;
16153;SDS011;8182;55.648;13.208;2024-01-30T04:45:45;74.20;;;28.77;;
16153;SDS011;8182;55.648;13.208;2024-01-30T04:48:13;73.07;;;26.27;;
16153;SDS011;8182;55.648;13.208;2024-01-30T04:50:40;80.80;;;28.57;;
16153;SDS011;8182;55.648;13.208;2024-01-30T04:53:07;74.17;;;27.47;;
16153;SDS011;8182;55.648;13.208;2024-01-30T04:55:34;76.37;;;23.90;;
16153;SDS011;8182;55.648;13.208;2024-01-30T04:58:03;78.83;;;24.97;;
16153;SDS011;8182;55.648;13.208;2024-01-30T05:00:30;75.83;;;22.70;;
16153;SDS011;8182;55.648;13.208;2024-01-30T05:02:57;73.10;;;23.13;;
16153;SDS011;8182;55.648;13.208;2024-01-30T05:05:24;74.10;;;23.63;;
16153;SDS011;8182;55.648;13.208;2024-01-30T05:07:50;77.00;;;23.77;;
16153;SDS011;8182;55.648;13.208;2024-01-30T05:10:19;80.73;;;24.33;;
16153;SDS011;8182;55.648;13.208;2024-01-30T05:12:46;73.30;;;23.50;;
16153;SDS011;8182;55.648;13.208;2024-01-30T05:15:15;83.80;;;23.70;;
16153;SDS011;8182;55.648;13.208;2024-01-30T05:17:45;98.87;;;23.27;;
16153;SDS011;8182;55.648;13.208;2024-01-30T05:20:12;90.40;;;23.03;;
16153;SDS011;8182;55.648;13.208;2024-01-30T05:22:39;72.53;;;22.70;;
16153;SDS011;8182;55.648;13.208;2024-01-30T05:25:10;65.60;;;23.27;;
16153;SDS011;8182;55.648;13.208;2024-01-30T05:27:37;92.93;;;22.97;;
16153;SDS011;8182;55.648;13.208;2024-01-30T05:30:04;83.13;;;23.40;;
16153;SDS011;8182;55.648;13.208;2024-01-30T05:32:34;95.23;;;24.37;;
16153;SDS011;8182;55.648;13.208;2024-01-30T05:35:01;86.07;;;22.73;;
16153;SDS011;8182;55.648;13.208;2024-01-30T05:37:28;87.67;;;24.73;;
16153;SDS011;8182;55.648;13.208;2024-01-30T05:39:55;103.40;;;23.50;;
16153;SDS011;8182;55.648;13.208;2024-01-30T05:42:22;84.17;;;23.60;;
16153;SDS011;8182;55.648;13.208;2024-01-30T05:44:49;90.37;;;25.67;;
16153;SDS011;8182;55.648;13.208;2024-01-30T05:47:17;76.90;;;23.80;;
16153;SDS011;8182;55.648;13.208;2024-01-30T05:49:45;90.50;;;25.40;;
16153;SDS011;8182;55.648;13.208;2024-01-30T05:52:12;94.17;;;26.93;;
16153;SDS011;8182;55.648;13.208;2024-01-30T05:54:40;101.47;;;31.40;;
16153;SDS011;8182;55.648;13.208;2024-01-30T05:57:07;100.57;;;30.47;;
16153;SDS011;8182;55.648;13.208;2024-01-30T05:59:35;109.23;;;32.43;;
16153;SDS011;8182;55.648;13.208;2024-01-30T06:02:02;95.37;;;29.87;;
16153;SDS011;8182;55.648;13.208;2024-01-30T06:04:29;123.43;;;32.40;;
16153;SDS011;8182;55.648;13.208;2024-01-30T06:06:57;102.93;;;30.57;;
16153;SDS011;8182;55.648;13.208;2024-01-30T06:09:26;112.87;;;31.67;;
16153;SDS011;8182;55.648;13.208;2024-01-30T06:11:53;95.40;;;28.60;;
16153;SDS011;8182;55.648;13.208;2024-01-30T06:14:20;119.50;;;30.10;;
16153;SDS011;8182;55.648;13.208;2024-01-30T06:16:47;146.80;;;30.00;;
16153;SDS011;8182;55.648;13.208;2024-01-30T06:19:15;92.20;;;29.00;;
16153;SDS011;8182;55.648;13.208;2024-01-30T06:21:41;116.13;;;31.20;;
16153;SDS011;8182;55.648;13.208;2024-01-30T06:24:15;105.90;;;29.00;;
16153;SDS011;8182;55.648;13.208;2024-01-30T06:26:43;95.07;;;29.03;;
16153;SDS011;8182;55.648;13.208;2024-01-30T06:29:10;89.67;;;26.73;;
16153;SDS011;8182;55.648;13.208;2024-01-30T06:31:39;103.63;;;26.00;;
16153;SDS011;8182;55.648;13.208;2024-01-30T06:34:07;102.23;;;27.03;;
16153;SDS011;8182;55.648;13.208;2024-01-30T06:36:35;115.87;;;26.87;;
16153;SDS011;8182;55.648;13.208;2024-01-30T06:39:01;85.30;;;25.67;;
16153;SDS011;8182;55.648;13.208;2024-01-30T06:41:30;125.97;;;25.13;;
16153;SDS011;8182;55.648;13.208;2024-01-30T06:43:57;125.07;;;25.43;;
16153;SDS011;8182;55.648;13.208;2024-01-30T06:46:24;109.23;;;24.20;;
16153;SDS011;8182;55.648;13.208;2024-01-30T06:48:51;131.47;;;24.43;;
16153;SDS011;8182;55.648;13.208;2024-01-30T06:51:18;166.80;;;25.00;;
16153;SDS011;8182;55.648;13.208;2024-01-30T06:53:44;75.33;;;22.73;;
16153;SDS011;8182;55.648;13.208;2024-01-30T06:56:11;147.40;;;23.63;;
16153;SDS011;8182;55.648;13.208;2024-01-30T06:58:40;71.23;;;20.67;;
16153;SDS011;8182;55.648;13.208;2024-01-30T07:01:07;92.73;;;21.63;;
16153;SDS011;8182;55.648;13.208;2024-01-30T07:03:35;88.40;;;21.87;;
16153;SDS011;8182;55.648;13.208;2024-01-30T07:06:04;87.87;;;22.13;;
16153;SDS011;8182;55.648;13.208;2024-01-30T07:08:35;160.90;;;23.30;;
16153;SDS011;8182;55.648;13.208;2024-01-30T07:11:04;146.23;;;24.50;;
16153;SDS011;8182;55.648;13.208;2024-01-30T07:13:31;150.97;;;23.10;;
16153;SDS011;8182;55.648;13.208;2024-01-30T07:15:59;219.40;;;26.00;;
16153;SDS011;8182;55.648;13.208;2024-01-30T07:18:26;142.57;;;28.80;;
16153;SDS011;8182;55.648;13.208;2024-01-30T07:20:53;123.57;;;22.50;;
16153;SDS011;8182;55.648;13.208;2024-01-30T07:23:20;101.47;;;20.93;;
16153;SDS011;8182;55.648;13.208;2024-01-30T07:25:46;100.40;;;22.13;;
16153;SDS011;8182;55.648;13.208;2024-01-30T07:28:14;90.70;;;21.03;;
16153;SDS011;8182;55.648;13.208;2024-01-30T07:30:42;130.97;;;24.57;;
16153;SDS011;8182;55.648;13.208;2024-01-30T07:33:11;196.20;;;23.60;;
16153;SDS011;8182;55.648;13.208;2024-01-30T07:35:38;230.90;;;24.70;;
16153;SDS011;8182;55.648;13.208;2024-01-30T07:38:04;184.00;;;24.97;;
16153;SDS011;8182;55.648;13.208;2024-01-30T07:40:31;143.10;;;25.37;;
16153;SDS011;8182;55.648;13.208;2024-01-30T07:42:58;154.63;;;24.83;;
16153;SDS011;8182;55.648;13.208;2024-01-30T07:45:26;185.37;;;23.37;;
16153;SDS011;8182;55.648;13.208;2024-01-30T07:47:57;125.27;;;23.00;;
16153;SDS011;8182;55.648;13.208;2024-01-30T07:50:26;130.83;;;21.50;;
16153;SDS011;8182;55.648;13.208;2024-01-30T07:52:53;93.33;;;21.07;;
16153;SDS011;8182;55.648;13.208;2024-01-30T07:55:20;151.27;;;22.37;;
16153;SDS011;8182;55.648;13.208;2024-01-30T07:57:49;276.90;;;25.23;;
16153;SDS011;8182;55.648;13.208;2024-01-30T08:00:18;153.40;;;23.50;;
16153;SDS011;8182;55.648;13.208;2024-01-30T08:02:45;164.73;;;23.50;;
16153;SDS011;8182;55.648;13.208;2024-01-30T08:05:12;210.30;;;24.17;;
16153;SDS011;8182;55.648;13.208;2024-01-30T08:07:41;165.17;;;23.07;;
16153;SDS011;8182;55.648;13.208;2024-01-30T08:10:11;201.93;;;29.67;;
16153;SDS011;8182;55.648;13.208;2024-01-30T08:12:38;150.63;;;27.00;;
16153;SDS011;8182;55.648;13.208;2024-01-30T08:15:05;135.53;;;22.20;;
16153;SDS011;8182;55.648;13.208;2024-01-30T08:17:33;125.63;;;20.00;;
16153;SDS011;8182;55.648;13.208;2024-01-30T08:20:00;265.30;;;25.17;;
16153;SDS011;8182;55.648;13.208;2024-01-30T08:22:29;155.67;;;21.63;;
16153;SDS011;8182;55.648;13.208;2024-01-30T08:24:57;177.93;;;23.87;;
16153;SDS011;8182;55.648;13.208;2024-01-30T08:27:24;221.30;;;23.93;;
16153;SDS011;8182;55.648;13.208;2024-01-30T08:29:51;202.87;;;23.50;;
16153;SDS011;8182;55.648;13.208;2024-01-30T08:32:18;184.60;;;24.10;;
16153;SDS011;8182;55.648;13.208;2024-01-30T08:34:45;116.50;;;22.77;;
16153;SDS011;8182;55.648;13.208;2024-01-30T08:37:11;142.13;;;22.30;;
16153;SDS011;8182;55.648;13.208;2024-01-30T08:39:41;145.30;;;21.70;;
16153;SDS011;8182;55.648;13.208;2024-01-30T08:42:10;135.23;;;23.87;;
16153;SDS011;8182;55.648;13.208;2024-01-30T08:44:36;136.70;;;24.17;;
16153;SDS011;8182;55.648;13.208;2024-01-30T08:47:04;230.70;;;23.57;;
16153;SDS011;8182;55.648;13.208;2024-01-30T08:49:30;154.73;;;21.87;;
16153;SDS011;8182;55.648;13.208;2024-01-30T08:51:57;137.43;;;20.20;;
16153;SDS011;8182;55.648;13.208;2024-01-30T08:54:24;207.87;;;24.70;;
16153;SDS011;8182;55.648;13.208;2024-01-30T08:56:50;134.57;;;23.30;;
16153;SDS011;8182;55.648;13.208;2024-01-30T08:59:19;103.43;;;21.07;;
16153;SDS011;8182;55.648;13.208;2024-01-30T09:01:48;107.23;;;20.83;;
16153;SDS011;8182;55.648;13.208;2024-01-30T09:04:18;106.57;;;20.97;;
16153;SDS011;8182;55.648;13.208;2024-01-30T09:06:45;117.43;;;22.27;;
16153;SDS011;8182;55.648;13.208;2024-01-30T09:09:12;122.63;;;22.97;;
16153;SDS011;8182;55.648;13.208;2024-01-30T09:11:39;123.10;;;21.83;;
16153;SDS011;8182;55.648;13.208;2024-01-30T09:14:06;110.67;;;20.80;;
16153;SDS011;8182;55.648;13.208;2024-01-30T09:16:35;134.20;;;20.03;;
16153;SDS011;8182;55.648;13.208;2024-01-30T09:19:02;102.47;;;20.47;;
16153;SDS011;8182;55.648;13.208;2024-01-30T09:21:29;120.10;;;19.53;;
16153;SDS011;8182;55.648;13.208;2024-01-30T09:24:01;96.23;;;18.73;;
16153;SDS011;8182;55.648;13.208;2024-01-30T09:26:29;96.47;;;18.13;;
16153;SDS011;8182;55.648;13.208;2024-01-30T09:28:55;77.07;;;18.87;;
16153;SDS011;8182;55.648;13.208;2024-01-30T09:31:22;109.20;;;18.23;;
16153;SDS011;8182;55.648;13.208;2024-01-30T09:33:50;61.53;;;14.00;;
16153;SDS011;8182;55.648;13.208;2024-01-30T09:36:19;124.37;;;20.30;;
16153;SDS011;8182;55.648;13.208;2024-01-30T09:38:46;96.13;;;19.23;;
16153;SDS011;8182;55.648;13.208;2024-01-30T09:41:13;97.50;;;18.47;;
16153;SDS011;8182;55.648;13.208;2024-01-30T09:43:41;100.63;;;17.83;;
16153;SDS011;8182;55.648;13.208;2024-01-30T09:46:14;77.80;;;18.23;;
16153;SDS011;8182;55.648;13.208;2024-01-30T09:48:42;108.47;;;19.03;;
16153;SDS011;8182;55.648;13.208;2024-01-30T09:51:12;98.40;;;18.77;;
16153;SDS011;8182;55.648;13.208;2024-01-30T09:53:41;88.97;;;17.60;;
16153;SDS011;8182;55.648;13.208;2024-01-30T09:56:09;90.83;;;17.07;;
16153;SDS011;8182;55.648;13.208;2024-01-30T09:58:38;73.80;;;17.47;;
16153;SDS011;8182;55.648;13.208;2024-01-30T10:01:05;52.50;;;14.23;;
16153;SDS011;8182;55.648;13.208;2024-01-30T10:03:32;51.40;;;13.20;;
16153;SDS011;8182;55.648;13.208;2024-01-30T10:05:59;39.33;;;11.93;;
16153;SDS011;8182;55.648;13.208;2024-01-30T10:08:29;47.20;;;13.27;;
16153;SDS011;8182;55.648;13.208;2024-01-30T10:10:56;41.57;;;13.57;;
16153;SDS011;8182;55.648;13.208;2024-01-30T10:13:23;41.03;;;13.80;;
16153;SDS011;8182;55.648;13.208;2024-01-30T10:15:50;51.70;;;15.73;;
16153;SDS011;8182;55.648;13.208;2024-01-30T10:18:17;45.37;;;15.70;;
16153;SDS011;8182;55.648;13.208;2024-01-30T10:20:44;42.27;;;15.10;;
16153;SDS011;8182;55.648;13.208;2024-01-30T10:23:13;48.77;;;16.43;;
16153;SDS011;8182;55.648;13.208;2024-01-30T10:25:42;43.40;;;14.80;;
16153;SDS011;8182;55.648;13.208;2024-01-30T10:28:09;49.87;;;16.47;;
16153;SDS011;8182;55.648;13.208;2024-01-30T10:30:36;51.83;;;15.97;;
16153;SDS011;8182;55.648;13.208;2024-01-30T10:33:03;51.73;;;17.33;;
16153;SDS011;8182;55.648;13.208;2024-01-30T10:35:30;55.13;;;17.70;;
16153;SDS011;8182;55.648;13.208;2024-01-30T10:37:59;50.90;;;16.60;;
16153;SDS011;8182;55.648;13.208;2024-01-30T10:40:27;53.57;;;18.13;;
16153;SDS011;8182;55.648;13.208;2024-01-30T10:42:56;54.03;;;18.23;;
16153;SDS011;8182;55.648;13.208;2024-01-30T10:45:25;61.53;;;20.17;;
16153;SDS011;8182;55.648;13.208;2024-01-30T10:47:54;66.90;;;22.67;;
16153;SDS011;8182;55.648;13.208;2024-01-30T10:50:23;82.93;;;25.33;;
16153;SDS011;8182;55.648;13.208;2024-01-30T10:52:52;90.20;;;25.70;;
16153;SDS011;8182;55.648;13.208;2024-01-30T10:55:19;82.90;;;24.67;;
16153;SDS011;8182;55.648;13.208;2024-01-30T10:57:48;89.43;;;26.10;;
16153;SDS011;8182;55.648;13.208;2024-01-30T11:00:17;82.23;;;24.70;;
16153;SDS011;8182;55.648;13.208;2024-01-30T11:02:48;74.60;;;23.80;;
16153;SDS011;8182;55.648;13.208;2024-01-30T11:05:22;66.60;;;21.70;;
16153;SDS011;8182;55.648;13.208;2024-01-30T11:07:51;61.47;;;20.87;;
16153;SDS011;8182;55.648;13.208;2024-01-30T11:10:18;64.60;;;20.87;;
16153;SDS011;8182;55.648;13.208;2024-01-30T11:12:46;58.17;;;20.10;;
16153;SDS011;8182;55.648;13.208;2024-01-30T11:15:16;64.43;;;22.50;;
16153;SDS011;8182;55.648;13.208;2024-01-30T11:17:44;63.70;;;21.97;;
16153;SDS011;8182;55.648;13.208;2024-01-30T11:20:19;68.87;;;21.13;;
16153;SDS011;8182;55.648;13.208;2024-01-30T11:22:47;66.50;;;21.23;;
16153;SDS011;8182;55.648;13.208;2024-01-30T11:25:16;54.53;;;19.50;;
16153;SDS011;8182;55.648;13.208;2024-01-30T11:27:44;36.83;;;13.17;;
16153;SDS011;8182;55.648;13.208;2024-01-30T11:30:21;49.43;;;19.70;;
16153;SDS011;8182;55.648;13.208;2024-01-30T11:32:59;51.87;;;18.40;;
16153;SDS011;8182;55.648;13.208;2024-01-30T11:35:31;48.00;;;17.00;;
16153;SDS011;8182;55.648;13.208;2024-01-30T11:37:59;53.20;;;18.53;;
16153;SDS011;8182;55.648;13.208;2024-01-30T11:40:27;50.90;;;17.73;;
16153;SDS011;8182;55.648;13.208;2024-01-30T11:42:54;39.70;;;14.17;;
16153;SDS011;8182;55.648;13.208;2024-01-30T11:45:23;47.13;;;17.20;;
16153;SDS011;8182;55.648;13.208;2024-01-30T11:47:50;49.83;;;18.33;;
16153;SDS011;8182;55.648;13.208;2024-01-30T11:50:17;35.83;;;16.20;;
16153;SDS011;8182;55.648;13.208;2024-01-30T11:52:44;45.57;;;17.67;;
16153;SDS011;8182;55.648;13.208;2024-01-30T11:55:11;43.07;;;16.47;;
16153;SDS011;8182;55.648;13.208;2024-01-30T11:57:39;43.20;;;16.60;;
16153;SDS011;8182;55.648;13.208;2024-01-30T12:00:06;38.07;;;16.17;;
16153;SDS011;8182;55.648;13.208;2024-01-30T12:02:42;35.10;;;15.90;;
16153;SDS011;8182;55.648;13.208;2024-01-30T12:05:09;36.20;;;14.83;;
16153;SDS011;8182;55.648;13.208;2024-01-30T12:07:36;32.90;;;15.07;;
16153;SDS011;8182;55.648;13.208;2024-01-30T12:10:03;38.07;;;15.23;;
16153;SDS011;8182;55.648;13.208;2024-01-30T12:12:33;34.63;;;14.40;;
16153;SDS011;8182;55.648;13.208;2024-01-30T12:15:00;24.60;;;12.40;;
16153;SDS011;8182;55.648;13.208;2024-01-30T12:17:28;31.83;;;12.90;;
16153;SDS011;8182;55.648;13.208;2024-01-30T12:20:06;28.90;;;13.03;;
16153;SDS011;8182;55.648;13.208;2024-01-30T12:22:35;34.10;;;14.10;;
16153;SDS011;8182;55.648;13.208;2024-01-30T12:25:04;29.70;;;13.17;;
16153;SDS011;8182;55.648;13.208;2024-01-30T12:27:31;30.37;;;13.43;;
16153;SDS011;8182;55.648;13.208;2024-01-30T12:29:58;40.10;;;13.33;;
16153;SDS011;8182;55.648;13.208;2024-01-30T12:32:25;21.40;;;10.07;;
16153;SDS011;8182;55.648;13.208;2024-01-30T12:34:54;24.50;;;11.53;;
16153;SDS011;8182;55.648;13.208;2024-01-30T12:37:24;24.37;;;10.57;;
16153;SDS011;8182;55.648;13.208;2024-01-30T12:39:51;22.47;;;10.90;;
16153;SDS011;8182;55.648;13.208;2024-01-30T12:42:19;22.23;;;10.53;;
16153;SDS011;8182;55.648;13.208;2024-01-30T12:44:47;36.63;;;15.37;;
16153;SDS011;8182;55.648;13.208;2024-01-30T12:47:14;32.77;;;14.43;;
16153;SDS011;8182;55.648;13.208;2024-01-30T12:49:42;36.83;;;15.37;;
16153;SDS011;8182;55.648;13.208;2024-01-30T12:52:09;30.30;;;13.90;;
16153;SDS011;8182;55.648;13.208;2024-01-30T12:54:38;29.53;;;13.50;;
16153;SDS011;8182;55.648;13.208;2024-01-30T12:57:05;28.83;;;13.50;;
16153;SDS011;8182;55.648;13.208;2024-01-30T12:59:32;24.93;;;12.80;;
16153;SDS011;8182;55.648;13.208;2024-01-30T13:01:59;29.80;;;14.27;;
16153;SDS011;8182;55.648;13.208;2024-01-30T13:04:26;35.57;;;15.37;;
16153;SDS011;8182;55.648;13.208;2024-01-30T13:06:54;37.70;;;14.07;;
16153;SDS011;8182;55.648;13.208;2024-01-30T13:09:21;37.43;;;15.07;;
16153;SDS011;8182;55.648;13.208;2024-01-30T13:11:49;40.60;;;16.20;;
16153;SDS011;8182;55.648;13.208;2024-01-30T13:14:17;38.97;;;16.57;;
16153;SDS011;8182;55.648;13.208;2024-01-30T13:16:44;41.10;;;16.87;;
16153;SDS011;8182;55.648;13.208;2024-01-30T13:19:10;38.60;;;15.93;;
16153;SDS011;8182;55.648;13.208;2024-01-30T13:21:37;37.43;;;17.27;;
16153;SDS011;8182;55.648;13.208;2024-01-30T13:24:05;43.47;;;17.07;;
16153;SDS011;8182;55.648;13.208;2024-01-30T13:26:32;38.43;;;16.27;;
16153;SDS011;8182;55.648;13.208;2024-01-30T13:29:00;36.00;;;16.07;;
16153;SDS011;8182;55.648;13.208;2024-01-30T13:31:27;33.77;;;15.57;;
16153;SDS011;8182;55.648;13.208;2024-01-30T13:33:54;31.53;;;15.70;;
16153;SDS011;8182;55.648;13.208;2024-01-30T13:36:21;28.50;;;15.77;;
16153;SDS011;8182;55.648;13.208;2024-01-30T13:38:48;32.80;;;16.30;;
16153;SDS011;8182;55.648;13.208;2024-01-30T13:41:15;30.87;;;15.97;;
16153;SDS011;8182;55.648;13.208;2024-01-30T13:43:43;31.70;;;16.60;;
16153;SDS011;8182;55.648;13.208;2024-01-30T13:46:11;35.57;;;17.50;;
16153;SDS011;8182;55.648;13.208;2024-01-30T13:48:38;35.47;;;17.27;;
16153;SDS011;8182;55.648;13.208;2024-01-30T13:51:07;30.83;;;17.53;;
16153;SDS011;8182;55.648;13.208;2024-01-30T13:53:34;30.07;;;17.00;;
16153;SDS011;8182;55.648;13.208;2024-01-30T13:56:01;25.30;;;16.03;;
16153;SDS011;8182;55.648;13.208;2024-01-30T13:58:28;29.07;;;16.40;;
16153;SDS011;8182;55.648;13.208;2024-01-30T14:00:55;23.17;;;15.23;;
16153;SDS011;8182;55.648;13.208;2024-01-30T14:03:23;25.30;;;16.17;;
16153;SDS011;8182;55.648;13.208;2024-01-30T14:05:50;25.23;;;15.53;;
16153;SDS011;8182;55.648;13.208;2024-01-30T14:08:17;25.03;;;15.50;;
16153;SDS011;8182;55.648;13.208;2024-01-30T14:10:46;22.10;;;15.20;;
16153;SDS011;8182;55.648;13.208;2024-01-30T14:13:13;24.43;;;14.50;;
16153;SDS011;8182;55.648;13.208;2024-01-30T14:15:40;23.40;;;15.20;;
16153;SDS011;8182;55.648;13.208;2024-01-30T14:18:07;22.40;;;14.77;;
16153;SDS011;8182;55.648;13.208;2024-01-30T14:20:35;21.90;;;14.20;;